createdAt,value
2018-02-19T00:00:53.390Z,26.57
2018-02-19T00:03:21.742Z,20.37
2018-02-19T00:05:50.874Z,20.67
2018-02-19T00:08:19.551Z,23.87
2018-02-19T00:10:47.921Z,27.23
2018-02-19T00:13:16.269Z,19.10
2018-02-19T00:15:44.617Z,21.53
2018-02-19T00:18:12.973Z,22.27
2018-02-19T00:20:41.345Z,22.57
2018-02-19T00:23:09.680Z,25.10
2018-02-19T00:25:38.033Z,23.40
2018-02-19T00:28:06.365Z,25.30
2018-02-19T00:30:34.742Z,22.73
2018-02-19T00:33:04.733Z,20.43
2018-02-19T00:35:33.875Z,21.33
2018-02-19T00:38:02.217Z,22.93
2018-02-19T00:40:31.349Z,22.30
2018-02-19T00:42:59.722Z,22.67
2018-02-19T00:45:28.941Z,22.80
2018-02-19T00:47:57.272Z,24.00
2018-02-19T00:50:26.365Z,21.10
2018-02-19T00:52:55.488Z,23.50
2018-02-19T00:55:23.837Z,22.97
2018-02-19T00:57:52.210Z,23.63
2018-02-19T01:00:20.534Z,26.03
2018-02-19T01:02:48.906Z,25.83
2018-02-19T01:05:17.228Z,26.77
2018-02-19T01:07:45.605Z,23.53
2018-02-19T01:10:14.713Z,23.37
2018-02-19T01:12:43.837Z,22.67
2018-02-19T01:15:12.166Z,23.23
2018-02-19T01:17:40.546Z,25.97
2018-02-19T01:20:08.883Z,23.93
2018-02-19T01:22:37.222Z,23.27
2018-02-19T01:25:06.337Z,22.00
2018-02-19T01:27:34.660Z,24.47
2018-02-19T01:30:03.026Z,25.33
2018-02-19T01:32:31.338Z,25.20
2018-02-19T01:34:59.690Z,24.07
2018-02-19T01:37:28.033Z,22.37
2018-02-19T01:39:56.393Z,23.07
2018-02-19T01:42:24.728Z,22.50
2018-02-19T01:44:53.093Z,25.27
2018-02-19T01:47:21.429Z,24.33
2018-02-19T01:50:01.718Z,22.73
2018-02-19T01:52:30.106Z,23.30
2018-02-19T01:54:58.462Z,26.87
2018-02-19T01:57:26.823Z,24.07
2018-02-19T01:59:55.234Z,24.00
2018-02-19T02:02:23.557Z,23.57
2018-02-19T02:04:52.653Z,22.67
2018-02-19T02:07:21.781Z,22.17
2018-02-19T02:09:50.109Z,24.00
2018-02-19T02:12:19.276Z,22.67
2018-02-19T02:14:47.601Z,24.70
2018-02-19T02:17:15.970Z,21.80
2018-02-19T02:19:45.062Z,22.97
2018-02-19T02:22:14.214Z,22.90
2018-02-19T02:24:42.566Z,21.60
2018-02-19T02:27:10.916Z,24.03
2018-02-19T02:29:39.328Z,23.33
2018-02-19T02:32:07.669Z,23.90
2018-02-19T02:34:36.029Z,21.67
2018-02-19T02:37:04.464Z,25.30
2018-02-19T02:39:32.860Z,24.50
2018-02-19T02:42:01.333Z,26.80
2018-02-19T02:44:29.681Z,24.77
2018-02-19T02:46:58.364Z,28.20
2018-02-19T02:49:27.444Z,26.00
2018-02-19T02:51:56.642Z,25.20
2018-02-19T02:54:25.754Z,26.60
2018-02-19T02:56:54.121Z,26.13
2018-02-19T02:59:22.462Z,25.93
2018-02-19T03:01:50.840Z,28.40
2018-02-19T03:04:19.201Z,26.67
2018-02-19T03:06:47.544Z,27.77
2018-02-19T03:09:15.916Z,23.80
2018-02-19T03:11:44.265Z,23.73
2018-02-19T03:14:14.149Z,24.67
2018-02-19T03:16:42.506Z,24.23
2018-02-19T03:19:10.865Z,25.97
2018-02-19T03:21:39.205Z,26.10
2018-02-19T03:24:07.592Z,26.27
2018-02-19T03:26:35.963Z,26.03
2018-02-19T03:29:04.347Z,25.53
2018-02-19T03:31:32.719Z,25.77
2018-02-19T03:34:01.144Z,26.73
2018-02-19T03:36:29.816Z,26.10
2018-02-19T03:38:58.178Z,26.63
2018-02-19T03:41:26.525Z,28.70
2018-02-19T03:43:54.877Z,23.40
2018-02-19T03:46:23.232Z,25.60
2018-02-19T03:48:51.549Z,27.63
2018-02-19T03:51:19.920Z,24.17
2018-02-19T03:53:48.245Z,27.00
2018-02-19T03:56:16.621Z,25.67
2018-02-19T03:58:44.990Z,22.77
2018-02-19T04:01:14.150Z,25.77
2018-02-19T04:03:42.476Z,24.77
2018-02-19T04:06:11.601Z,26.37
2018-02-19T04:08:39.964Z,26.50
2018-02-19T04:11:08.349Z,27.00
2018-02-19T04:13:36.680Z,28.67
2018-02-19T04:16:05.005Z,30.73
2018-02-19T04:18:33.393Z,30.23
2018-02-19T04:21:01.745Z,25.60
2018-02-19T04:23:30.138Z,28.10
2018-02-19T04:25:58.572Z,25.33
2018-02-19T04:28:26.939Z,25.27
2018-02-19T04:30:57.104Z,26.30
2018-02-19T04:33:26.247Z,30.10
2018-02-19T04:35:54.602Z,28.07
2018-02-19T04:38:22.997Z,25.33
2018-02-19T04:40:51.328Z,26.33
2018-02-19T04:43:20.585Z,27.20
2018-02-19T04:45:54.749Z,29.10
2018-02-19T04:48:23.110Z,27.57
2018-02-19T04:50:52.210Z,27.50
2018-02-19T04:53:20.619Z,25.13
2018-02-19T04:55:48.962Z,26.70
2018-02-19T04:58:18.145Z,27.27
2018-02-19T05:00:47.258Z,28.13
2018-02-19T05:03:16.399Z,29.70
2018-02-19T05:05:44.760Z,27.77
2018-02-19T05:08:13.145Z,28.50
2018-02-19T05:10:41.496Z,27.00
2018-02-19T05:13:09.837Z,29.07
2018-02-19T05:15:38.217Z,32.07
2018-02-19T05:18:06.532Z,27.53
2018-02-19T05:20:34.946Z,27.70
2018-02-19T05:23:03.276Z,29.90
2018-02-19T05:25:31.643Z,32.50
2018-02-19T05:27:59.977Z,29.50
2018-02-19T05:30:28.357Z,27.50
2018-02-19T05:32:56.715Z,28.93
2018-02-19T05:35:25.101Z,27.43
2018-02-19T05:37:53.457Z,25.57
2018-02-19T05:40:21.949Z,26.00
2018-02-19T05:42:50.293Z,26.40
2018-02-19T05:45:19.404Z,24.83
2018-02-19T05:47:47.825Z,26.87
2018-02-19T05:50:16.159Z,26.57
2018-02-19T05:52:44.565Z,30.27
2018-02-19T05:55:12.917Z,31.33
2018-02-19T05:57:41.295Z,30.13
2018-02-19T06:00:09.630Z,28.50
2018-02-19T06:02:38.790Z,28.13
2018-02-19T06:05:07.169Z,26.07
2018-02-19T06:07:35.530Z,28.10
2018-02-19T06:10:03.865Z,31.33
2018-02-19T06:12:33.042Z,27.30
2018-02-19T06:15:01.404Z,29.77
2018-02-19T06:17:29.809Z,27.73
2018-02-19T06:19:58.452Z,32.87
2018-02-19T06:22:26.817Z,31.53
2018-02-19T06:24:55.223Z,29.40
2018-02-19T06:27:23.563Z,34.07
2018-02-19T06:29:51.945Z,30.93
2018-02-19T06:32:20.345Z,30.23
2018-02-19T06:34:48.720Z,28.17
2018-02-19T06:37:17.045Z,29.97
2018-02-19T06:39:45.468Z,28.43
2018-02-19T06:42:14.574Z,29.03
2018-02-19T06:44:42.948Z,30.70
2018-02-19T06:47:11.389Z,33.50
2018-02-19T06:49:39.764Z,23.30
2018-02-19T06:52:08.871Z,28.57
2018-02-19T06:54:37.998Z,30.57
2018-02-19T06:57:06.338Z,26.77
2018-02-19T06:59:35.539Z,31.80
2018-02-19T07:02:04.636Z,29.43
2018-02-19T07:04:33.754Z,25.83
2018-02-19T07:07:03.066Z,30.23
2018-02-19T07:09:31.426Z,28.30
2018-02-19T07:11:59.927Z,27.40
2018-02-19T07:14:28.274Z,30.37
2018-02-19T07:16:57.430Z,28.63
2018-02-19T07:19:25.788Z,29.20
2018-02-19T07:21:54.169Z,27.50
2018-02-19T07:24:22.505Z,27.73
2018-02-19T07:26:50.892Z,27.70
2018-02-19T07:29:19.253Z,27.90
2018-02-19T07:31:47.677Z,26.83
2018-02-19T07:34:16.029Z,28.77
2018-02-19T07:36:44.428Z,28.57
2018-02-19T07:39:12.780Z,26.03
2018-02-19T07:41:41.122Z,26.33
2018-02-19T07:44:09.556Z,28.43
2018-02-19T07:46:38.640Z,25.03
2018-02-19T07:49:07.144Z,26.73
2018-02-19T07:51:35.528Z,27.63
2018-02-19T07:54:03.911Z,27.53
2018-02-19T07:56:32.242Z,26.40
2018-02-19T07:59:01.389Z,26.43
2018-02-19T08:01:29.715Z,25.80
2018-02-19T08:03:58.105Z,26.50
2018-02-19T08:06:26.493Z,27.93
2018-02-19T08:08:54.900Z,26.17
2018-02-19T08:11:24.029Z,26.27
2018-02-19T08:13:52.402Z,27.43
2018-02-19T08:16:20.825Z,26.50
2018-02-19T08:18:49.249Z,29.03
2018-02-19T08:21:17.613Z,29.63
2018-02-19T08:23:45.956Z,29.97
2018-02-19T08:26:14.346Z,31.80
2018-02-19T08:28:42.711Z,33.27
2018-02-19T08:31:11.109Z,33.87
2018-02-19T08:33:39.441Z,28.90
2018-02-19T08:36:08.597Z,31.73
2018-02-19T08:38:36.962Z,30.63
2018-02-19T08:41:05.342Z,36.53
2018-02-19T08:43:33.871Z,30.53
2018-02-19T08:46:02.320Z,30.13
2018-02-19T08:48:30.692Z,28.23
2018-02-19T08:50:59.210Z,30.93
2018-02-19T08:53:27.590Z,34.23
2018-02-19T08:55:56.699Z,30.83
2018-02-19T08:58:25.066Z,31.30
2018-02-19T09:00:54.208Z,29.03
2018-02-19T09:03:22.604Z,32.33
2018-02-19T09:05:50.942Z,30.07
2018-02-19T09:08:19.293Z,29.33
2018-02-19T09:10:47.637Z,31.07
2018-02-19T09:13:17.698Z,34.07
2018-02-19T09:15:46.034Z,33.37
2018-02-19T09:18:14.412Z,32.63
2018-02-19T09:20:44.572Z,31.67
2018-02-19T09:23:13.697Z,32.10
2018-02-19T09:25:42.041Z,31.70
2018-02-19T09:28:10.417Z,30.73
2018-02-19T09:30:38.763Z,30.83
2018-02-19T09:33:07.102Z,31.73
2018-02-19T09:35:35.465Z,30.27
2018-02-19T09:38:03.797Z,39.10
2018-02-19T09:40:32.193Z,35.30
2018-02-19T09:43:01.296Z,32.23
2018-02-19T09:45:30.424Z,38.30
2018-02-19T09:47:58.746Z,37.90
2018-02-19T09:50:27.104Z,36.53
2018-02-19T09:52:55.573Z,35.87
2018-02-19T09:55:23.940Z,33.90
2018-02-19T09:57:52.261Z,35.70
2018-02-19T10:00:20.629Z,34.57
2018-02-19T10:02:48.953Z,35.07
2018-02-19T10:05:17.533Z,34.77
2018-02-19T10:07:45.886Z,35.40
2018-02-19T10:10:15.016Z,31.73
2018-02-19T10:12:43.369Z,37.57
2018-02-19T10:15:12.521Z,33.23
2018-02-19T10:17:40.865Z,39.90
2018-02-19T10:20:09.212Z,33.93
2018-02-19T10:22:38.628Z,34.73
2018-02-19T10:25:06.972Z,36.30
2018-02-19T10:27:35.335Z,42.70
2018-02-19T10:30:03.675Z,27.93
2018-02-19T10:32:32.027Z,29.70
2018-02-19T10:35:00.397Z,33.23
2018-02-19T10:37:28.782Z,33.53
2018-02-19T10:39:57.150Z,40.07
2018-02-19T10:42:26.156Z,35.30
2018-02-19T10:44:55.254Z,41.50
2018-02-19T10:47:23.589Z,34.40
2018-02-19T10:49:51.957Z,30.93
2018-02-19T10:52:20.298Z,31.93
2018-02-19T10:54:48.689Z,34.53
2018-02-19T10:57:17.021Z,31.87
2018-02-19T10:59:46.165Z,30.10
2018-02-19T11:02:14.504Z,30.50
2018-02-19T11:04:43.647Z,29.33
2018-02-19T11:07:11.997Z,36.03
2018-02-19T11:09:40.410Z,32.30
2018-02-19T11:12:08.737Z,33.60
2018-02-19T11:14:37.120Z,38.37
2018-02-19T11:17:06.208Z,47.30
2018-02-19T11:19:35.368Z,37.83
2018-02-19T11:22:03.733Z,34.87
2018-02-19T11:24:32.066Z,30.73
2018-02-19T11:29:36.053Z,30.53
2018-02-19T11:32:04.454Z,29.43
2018-02-19T11:34:32.762Z,29.33
2018-02-19T11:37:01.119Z,31.93
2018-02-19T11:39:30.206Z,33.67
2018-02-19T11:41:59.354Z,31.53
2018-02-19T11:44:28.010Z,32.13
2018-02-19T11:46:56.360Z,30.23
2018-02-19T11:49:25.483Z,31.93
2018-02-19T11:51:53.901Z,29.60
2018-02-19T11:54:22.242Z,30.87
2018-02-19T11:56:50.586Z,30.90
2018-02-19T11:59:18.961Z,32.77
2018-02-19T12:01:47.295Z,32.87
2018-02-19T12:04:15.960Z,31.30
2018-02-19T12:06:44.311Z,37.73
2018-02-19T12:09:13.440Z,36.67
2018-02-19T12:11:41.774Z,32.37
2018-02-19T12:14:10.146Z,34.47
2018-02-19T12:16:39.263Z,31.90
2018-02-19T12:19:07.677Z,37.03
2018-02-19T12:21:36.005Z,32.67
2018-02-19T12:24:05.065Z,29.10
2018-02-19T12:26:33.467Z,32.67
2018-02-19T12:29:01.825Z,28.27
2018-02-19T12:31:30.217Z,31.60
2018-02-19T12:33:58.549Z,30.70
2018-02-19T12:36:26.917Z,29.43
2018-02-19T12:38:56.012Z,30.23
2018-02-19T12:41:24.399Z,29.87
2018-02-19T12:43:52.761Z,30.37
2018-02-19T12:46:21.158Z,27.53
2018-02-19T12:48:49.524Z,34.13
2018-02-19T12:51:17.885Z,32.83
2018-02-19T12:53:47.020Z,33.80
2018-02-19T12:56:15.397Z,30.37
2018-02-19T12:58:43.844Z,33.80
2018-02-19T13:01:12.187Z,35.73
2018-02-19T13:03:40.561Z,35.10
2018-02-19T13:06:08.893Z,33.80
2018-02-19T13:08:37.289Z,31.77
2018-02-19T13:11:05.614Z,29.13
2018-02-19T13:13:34.047Z,32.80
2018-02-19T13:16:02.393Z,31.50
2018-02-19T13:18:30.787Z,32.37
2018-02-19T13:20:59.461Z,32.27
2018-02-19T13:23:27.849Z,30.07
2018-02-19T13:25:56.301Z,29.90
2018-02-19T13:28:25.443Z,28.17
2018-02-19T13:30:53.788Z,30.60
2018-02-19T13:33:22.164Z,30.70
2018-02-19T13:35:50.579Z,29.10
2018-02-19T13:38:18.932Z,31.23
2018-02-19T13:40:47.321Z,29.47
2018-02-19T13:43:15.681Z,33.83
2018-02-19T13:45:44.066Z,30.37
2018-02-19T13:48:12.430Z,28.63
2018-02-19T13:50:40.815Z,32.70
2018-02-19T13:53:09.905Z,28.70
2018-02-19T13:55:38.273Z,28.03
2018-02-19T13:58:06.628Z,29.93
2018-02-19T14:00:35.049Z,28.40
2018-02-19T14:03:03.393Z,26.07
2018-02-19T14:05:32.577Z,25.40
2018-02-19T14:08:00.920Z,27.07
2018-02-19T14:10:29.359Z,27.90
2018-02-19T14:12:58.478Z,27.27
2018-02-19T14:15:26.817Z,25.83
2018-02-19T14:17:55.180Z,24.33
2018-02-19T14:20:23.618Z,24.87
2018-02-19T14:22:51.982Z,23.90
2018-02-19T14:25:20.317Z,26.43
2018-02-19T14:27:48.685Z,27.03
2018-02-19T14:30:17.030Z,29.30
2018-02-19T14:32:45.415Z,28.03
2018-02-19T14:35:13.855Z,27.73
2018-02-19T14:37:42.273Z,29.97
2018-02-19T14:40:10.592Z,31.63
2018-02-19T14:42:38.977Z,28.50
2018-02-19T14:45:07.381Z,31.40
2018-02-19T14:47:35.706Z,33.50
2018-02-19T14:50:04.060Z,31.37
2018-02-19T14:52:32.396Z,32.43
2018-02-19T14:55:01.513Z,30.23
2018-02-19T14:57:29.901Z,32.20
2018-02-19T14:59:58.493Z,31.33
2018-02-19T15:02:26.873Z,30.13
2018-02-19T15:04:55.236Z,29.13
2018-02-19T15:07:23.603Z,27.77
2018-02-19T15:09:52.197Z,30.30
2018-02-19T15:12:20.543Z,29.90
2018-02-19T15:14:49.706Z,29.27
2018-02-19T15:17:18.065Z,29.87
2018-02-19T15:19:46.427Z,31.03
2018-02-19T15:22:15.186Z,32.70
2018-02-19T15:24:44.329Z,31.07
2018-02-19T15:27:12.714Z,33.63
2018-02-19T15:29:41.121Z,30.23
2018-02-19T15:32:09.478Z,32.20
2018-02-19T15:34:40.258Z,27.17
2018-02-19T15:37:08.630Z,29.57
2018-02-19T15:39:36.973Z,35.07
2018-02-19T15:42:05.709Z,30.20
2018-02-19T15:44:34.050Z,30.63
2018-02-19T15:47:02.362Z,33.37
2018-02-19T15:49:30.747Z,29.90
2018-02-19T15:52:00.862Z,30.07
2018-02-19T15:54:29.237Z,28.77
2018-02-19T15:56:58.334Z,30.43
2018-02-19T15:59:27.465Z,32.30
2018-02-19T16:01:55.815Z,28.43
2018-02-19T16:04:24.307Z,29.90
2018-02-19T16:06:52.635Z,31.50
2018-02-19T16:09:22.552Z,32.80
2018-02-19T16:11:51.680Z,32.57
2018-02-19T16:14:20.048Z,29.43
2018-02-19T16:16:49.169Z,32.17
2018-02-19T16:19:17.521Z,33.30
2018-02-19T16:21:45.853Z,31.80
2018-02-19T16:24:14.222Z,32.30
2018-02-19T16:26:42.577Z,33.80
2018-02-19T16:29:10.958Z,33.73
2018-02-19T16:31:39.303Z,33.67
2018-02-19T16:34:07.638Z,34.07
2018-02-19T16:36:36.012Z,34.37
2018-02-19T16:39:04.345Z,31.03
2018-02-19T16:41:32.702Z,37.30
2018-02-19T16:44:01.798Z,36.20
2018-02-19T16:46:30.708Z,40.87
2018-02-19T16:48:59.038Z,37.30
2018-02-19T16:51:27.414Z,35.43
2018-02-19T16:53:55.749Z,33.90
2018-02-19T16:56:24.130Z,39.40
2018-02-19T16:58:52.460Z,37.20
2018-02-19T17:01:20.793Z,39.80
2018-02-19T17:03:49.150Z,38.80
2018-02-19T17:06:17.485Z,36.57
2018-02-19T17:08:46.632Z,38.70
2018-02-19T17:11:15.188Z,37.60
2018-02-19T17:13:43.574Z,36.20
2018-02-19T17:16:11.966Z,31.40
2018-02-19T17:18:40.381Z,32.50
2018-02-19T17:21:08.732Z,34.10
2018-02-19T17:23:38.609Z,35.60
2018-02-19T17:26:07.777Z,37.03
2018-02-19T17:28:36.164Z,35.03
2018-02-19T17:31:06.029Z,37.73
2018-02-19T17:33:34.357Z,35.50
2018-02-19T17:36:02.721Z,35.77
2018-02-19T17:38:31.044Z,35.00
2018-02-19T17:41:01.693Z,33.27
2018-02-19T17:43:30.061Z,33.23
2018-02-19T17:45:58.401Z,35.80
2018-02-19T17:48:28.271Z,32.20
2018-02-19T17:50:56.597Z,34.97
2018-02-19T17:53:24.965Z,34.70
2018-02-19T17:55:54.817Z,34.20
2018-02-19T17:58:23.193Z,41.80
2018-02-19T18:00:51.525Z,36.07
2018-02-19T18:03:20.693Z,39.67
2018-02-19T18:05:49.026Z,37.83
2018-02-19T18:08:18.163Z,41.83
2018-02-19T18:13:23.087Z,38.67
2018-02-19T18:15:51.447Z,37.60
2018-02-19T18:18:19.754Z,42.20
2018-02-19T18:20:48.083Z,42.37
2018-02-19T18:23:16.450Z,40.67
2018-02-19T18:25:44.778Z,38.73
2018-02-19T18:28:13.178Z,33.73
2018-02-19T18:30:41.543Z,38.53
2018-02-19T18:33:09.918Z,32.97
2018-02-19T18:35:38.261Z,39.73
2018-02-19T18:38:07.386Z,36.63
2018-02-19T18:40:35.737Z,37.73
2018-02-19T18:43:04.844Z,38.63
2018-02-19T18:45:33.200Z,34.20
2018-02-19T18:48:01.571Z,38.00
2018-02-19T18:50:29.894Z,36.33
2018-02-19T18:52:58.278Z,37.97
2018-02-19T18:55:26.607Z,39.23
2018-02-19T18:57:55.021Z,37.40
2018-02-19T19:00:23.375Z,41.17
2018-02-19T19:02:52.475Z,38.47
2018-02-19T19:05:21.613Z,34.83
2018-02-19T19:08:01.961Z,37.10
2018-02-19T19:10:42.210Z,41.10
2018-02-19T19:13:10.524Z,38.03
2018-02-19T19:15:38.872Z,35.97
2018-02-19T19:18:07.190Z,35.90
2018-02-19T19:20:35.541Z,40.50
2018-02-19T19:23:05.014Z,42.20
2018-02-19T19:25:33.351Z,38.33
2018-02-19T19:28:01.757Z,38.80
2018-02-19T19:30:30.858Z,41.97
2018-02-19T19:32:59.950Z,38.40
2018-02-19T19:35:28.359Z,40.87
2018-02-19T19:37:56.691Z,45.20
2018-02-19T19:40:25.936Z,41.97
2018-02-19T19:42:54.253Z,37.83
2018-02-19T19:45:22.630Z,41.10
2018-02-19T19:47:52.478Z,40.72
2018-02-19T19:50:20.853Z,42.47
2018-02-19T19:52:49.956Z,39.50
2018-02-19T19:55:18.332Z,37.50
2018-02-19T19:57:46.661Z,40.43
2018-02-19T20:00:15.038Z,40.17
2018-02-19T20:02:43.367Z,39.53
2018-02-19T20:05:11.718Z,36.27
2018-02-19T20:07:40.107Z,37.37
2018-02-19T20:10:08.507Z,41.57
2018-02-19T20:12:36.936Z,35.60
2018-02-19T20:15:05.326Z,39.23
2018-02-19T20:17:33.984Z,41.03
2018-02-19T20:20:02.314Z,33.87
2018-02-19T20:22:30.676Z,37.03
2018-02-19T20:24:59.037Z,37.27
2018-02-19T20:27:28.909Z,35.90
2018-02-19T20:29:57.270Z,37.03
2018-02-19T20:32:25.616Z,41.10
2018-02-19T20:34:54.745Z,35.87
2018-02-19T20:37:23.106Z,36.50
2018-02-19T20:39:51.472Z,35.63
2018-02-19T20:42:19.828Z,37.40
2018-02-19T20:44:48.224Z,41.87
2018-02-19T20:47:17.325Z,37.70
2018-02-19T20:49:45.696Z,38.57
2018-02-19T20:52:14.789Z,41.37
2018-02-19T20:54:43.186Z,42.50
2018-02-19T20:57:11.545Z,41.50
2018-02-19T20:59:40.683Z,42.43
2018-02-19T21:02:08.998Z,39.47
2018-02-19T21:04:38.156Z,40.80
2018-02-19T21:07:06.494Z,39.60
2018-02-19T21:09:35.600Z,43.40
2018-02-19T21:12:04.010Z,41.13
2018-02-19T21:14:32.333Z,37.13
2018-02-19T21:17:00.730Z,40.97
2018-02-19T21:19:29.094Z,37.93
2018-02-19T21:21:57.485Z,35.30
2018-02-19T21:24:25.860Z,34.73
2018-02-19T21:26:54.241Z,39.23
2018-02-19T21:29:22.586Z,35.63
2018-02-19T21:31:51.737Z,35.53
2018-02-19T21:34:20.093Z,33.63
2018-02-19T21:36:48.481Z,34.60
2018-02-19T21:39:16.860Z,34.70
2018-02-19T21:41:45.214Z,36.13
2018-02-19T21:44:13.605Z,36.73
2018-02-19T21:46:41.962Z,34.53
2018-02-19T21:49:11.125Z,38.23
2018-02-19T21:51:39.456Z,37.37
2018-02-19T21:54:07.839Z,37.70
2018-02-19T21:56:36.161Z,35.50
2018-02-19T21:59:04.537Z,35.67
2018-02-19T22:01:33.300Z,37.27
2018-02-19T22:04:01.681Z,37.03
2018-02-19T22:06:30.028Z,37.10
2018-02-19T22:08:58.429Z,36.20
2018-02-19T22:11:26.790Z,34.60
2018-02-19T22:13:55.205Z,36.30
2018-02-19T22:16:23.559Z,34.43
2018-02-19T22:18:51.913Z,35.20
2018-02-19T22:21:21.033Z,36.30
2018-02-19T22:23:49.419Z,34.93
2018-02-19T22:26:17.809Z,32.90
2018-02-19T22:28:46.144Z,36.00
2018-02-19T22:31:14.551Z,34.37
2018-02-19T22:33:42.881Z,33.17
2018-02-19T22:36:11.231Z,35.17
2018-02-19T22:38:39.566Z,34.97
2018-02-19T22:41:07.975Z,36.50
2018-02-19T22:43:36.301Z,32.10
2018-02-19T22:46:04.789Z,34.43
2018-02-19T22:48:33.927Z,35.37
2018-02-19T22:51:02.263Z,35.00
2018-02-19T22:53:31.391Z,35.47
2018-02-19T22:55:59.741Z,33.50
2018-02-19T22:58:28.117Z,33.43
2018-02-19T23:00:56.517Z,31.40
2018-02-19T23:03:24.933Z,31.67
2018-02-19T23:05:53.269Z,31.57
2018-02-19T23:08:21.660Z,32.60
2018-02-19T23:10:50.022Z,35.93
2018-02-19T23:13:18.366Z,35.73
2018-02-19T23:15:47.509Z,31.83
2018-02-19T23:18:15.981Z,34.93
2018-02-19T23:20:45.193Z,31.27
2018-02-19T23:23:13.557Z,31.20
2018-02-19T23:25:42.229Z,31.33
2018-02-19T23:28:10.622Z,33.53
2018-02-19T23:30:38.957Z,33.77
2018-02-19T23:33:07.281Z,33.83
2018-02-19T23:35:35.672Z,33.37
2018-02-19T23:38:03.989Z,32.13
2018-02-19T23:40:32.361Z,35.47
2018-02-19T23:43:00.678Z,32.17
2018-02-19T23:45:29.063Z,34.30
2018-02-19T23:47:57.377Z,31.10
2018-02-19T23:50:26.503Z,38.77
2018-02-19T23:52:55.216Z,35.63
2018-02-19T23:55:23.562Z,35.47
2018-02-19T23:57:51.973Z,33.70
